sensor_id;sensor_type;location;lat;lon;timestamp;temperature;humidity
18894;DHT22;9579;49.488;8.226;2024-01-15T00:00:45;0.50;99.90
18894;DHT22;9579;49.488;8.226;2024-01-15T00:03:32;0.50;99.90
18894;DHT22;9579;49.488;8.226;2024-01-15T00:06:19;0.50;99.90
18894;DHT22;9579;49.488;8.226;2024-01-15T00:09:07;0.60;99.90
18894;DHT22;9579;49.488;8.226;2024-01-15T00:11:55;0.50;99.90
18894;DHT22;9579;49.488;8.226;2024-01-15T00:14:42;0.40;99.90
18894;DHT22;9579;49.488;8.226;2024-01-15T00:17:29;0.20;99.90
18894;DHT22;9579;49.488;8.226;2024-01-15T00:20:16;0.20;99.90
18894;DHT22;9579;49.488;8.226;2024-01-15T00:23:03;0.20;99.90
18894;DHT22;9579;49.488;8.226;2024-01-15T00:25:51;0.20;99.90
18894;DHT22;9579;49.488;8.226;2024-01-15T00:28:39;0.20;99.90
18894;DHT22;9579;49.488;8.226;2024-01-15T00:31:26;0.20;99.90
18894;DHT22;9579;49.488;8.226;2024-01-15T00:34:15;0.30;99.90
18894;DHT22;9579;49.488;8.226;2024-01-15T00:37:02;0.40;99.90
18894;DHT22;9579;49.488;8.226;2024-01-15T00:39:52;0.40;99.90
18894;DHT22;9579;49.488;8.226;2024-01-15T00:42:39;0.40;99.90
18894;DHT22;9579;49.488;8.226;2024-01-15T00:45:28;0.40;99.90
18894;DHT22;9579;49.488;8.226;2024-01-15T00:48:15;0.40;99.90
18894;DHT22;9579;49.488;8.226;2024-01-15T00:51:02;0.40;99.90
18894;DHT22;9579;49.488;8.226;2024-01-15T00:53:49;0.50;99.90
18894;DHT22;9579;49.488;8.226;2024-01-15T00:56:36;0.60;99.90
18894;DHT22;9579;49.488;8.226;2024-01-15T00:59:23;0.60;99.90
18894;DHT22;9579;49.488;8.226;2024-01-15T01:02:12;0.60;99.90
18894;DHT22;9579;49.488;8.226;2024-01-15T01:04:59;0.70;99.90
18894;DHT22;9579;49.488;8.226;2024-01-15T01:07:46;0.60;99.90
18894;DHT22;9579;49.488;8.226;2024-01-15T01:10:33;0.70;99.90
18894;DHT22;9579;49.488;8.226;2024-01-15T01:13:20;0.60;99.90
18894;DHT22;9579;49.488;8.226;2024-01-15T01:16:07;0.70;99.90
18894;DHT22;9579;49.488;8.226;2024-01-15T01:18:55;0.80;99.90
18894;DHT22;9579;49.488;8.226;2024-01-15T01:21:42;0.70;99.90
18894;DHT22;9579;49.488;8.226;2024-01-15T01:24:29;0.80;99.90
18894;DHT22;9579;49.488;8.226;2024-01-15T01:27:16;0.70;99.90
18894;DHT22;9579;49.488;8.226;2024-01-15T01:30:04;0.80;99.90
18894;DHT22;9579;49.488;8.226;2024-01-15T01:32:51;0.80;99.90
18894;DHT22;9579;49.488;8.226;2024-01-15T01:35:40;0.90;99.90
18894;DHT22;9579;49.488;8.226;2024-01-15T01:38:27;0.80;99.90
18894;DHT22;9579;49.488;8.226;2024-01-15T01:41:14;0.80;99.90
18894;DHT22;9579;49.488;8.226;2024-01-15T01:44:01;0.70;99.90
18894;DHT22;9579;49.488;8.226;2024-01-15T01:46:49;0.80;99.90
18894;DHT22;9579;49.488;8.226;2024-01-15T01:49:37;0.90;99.90
18894;DHT22;9579;49.488;8.226;2024-01-15T01:52:25;0.70;99.90
18894;DHT22;9579;49.488;8.226;2024-01-15T01:55:12;0.70;99.90
18894;DHT22;9579;49.488;8.226;2024-01-15T01:57:59;0.50;99.90
18894;DHT22;9579;49.488;8.226;2024-01-15T02:00:47;0.30;99.90
18894;DHT22;9579;49.488;8.226;2024-01-15T02:03:35;0.20;99.90
18894;DHT22;9579;49.488;8.226;2024-01-15T02:06:23;0.00;99.90
18894;DHT22;9579;49.488;8.226;2024-01-15T02:09:12;-0.10;99.90
18894;DHT22;9579;49.488;8.226;2024-01-15T02:12:01;-0.20;99.90
18894;DHT22;9579;49.488;8.226;2024-01-15T02:14:48;-0.20;99.90
18894;DHT22;9579;49.488;8.226;2024-01-15T02:17:35;-0.20;99.90
18894;DHT22;9579;49.488;8.226;2024-01-15T02:20:22;-0.20;99.90
18894;DHT22;9579;49.488;8.226;2024-01-15T02:23:11;-0.40;99.90
18894;DHT22;9579;49.488;8.226;2024-01-15T02:25:58;-0.40;99.90
18894;DHT22;9579;49.488;8.226;2024-01-15T02:28:46;-0.40;99.90
18894;DHT22;9579;49.488;8.226;2024-01-15T02:31:33;-0.40;99.90
18894;DHT22;9579;49.488;8.226;2024-01-15T02:34:20;-0.30;99.90
18894;DHT22;9579;49.488;8.226;2024-01-15T02:37:07;-0.10;99.90
18894;DHT22;9579;49.488;8.226;2024-01-15T02:39:55;-0.30;99.90
18894;DHT22;9579;49.488;8.226;2024-01-15T02:42:42;-0.30;99.90
18894;DHT22;9579;49.488;8.226;2024-01-15T02:45:29;-0.30;99.90
18894;DHT22;9579;49.488;8.226;2024-01-15T02:48:16;-0.30;99.90
18894;DHT22;9579;49.488;8.226;2024-01-15T02:51:04;-0.20;99.90
18894;DHT22;9579;49.488;8.226;2024-01-15T02:53:51;-0.20;99.90
18894;DHT22;9579;49.488;8.226;2024-01-15T02:56:40;-0.20;99.90
18894;DHT22;9579;49.488;8.226;2024-01-15T02:59:27;-0.20;99.90
18894;DHT22;9579;49.488;8.226;2024-01-15T03:02:14;-0.20;99.90
18894;DHT22;9579;49.488;8.226;2024-01-15T03:05:01;-0.20;99.90
18894;DHT22;9579;49.488;8.226;2024-01-15T03:07:48;-0.20;99.90
18894;DHT22;9579;49.488;8.226;2024-01-15T03:10:35;-0.20;99.90
18894;DHT22;9579;49.488;8.226;2024-01-15T03:13:23;-0.20;99.90
18894;DHT22;9579;49.488;8.226;2024-01-15T03:16:10;-0.10;99.90
18894;DHT22;9579;49.488;8.226;2024-01-15T03:18:57;-0.10;99.90
18894;DHT22;9579;49.488;8.226;2024-01-15T03:21:44;0.00;99.90
18894;DHT22;9579;49.488;8.226;2024-01-15T03:24:32;0.00;99.90
18894;DHT22;9579;49.488;8.226;2024-01-15T03:27:19;0.20;99.90
18894;DHT22;9579;49.488;8.226;2024-01-15T03:30:08;0.50;99.90
18894;DHT22;9579;49.488;8.226;2024-01-15T03:32:55;0.70;99.90
18894;DHT22;9579;49.488;8.226;2024-01-15T03:35:42;0.90;99.90
18894;DHT22;9579;49.488;8.226;2024-01-15T03:38:29;1.00;99.90
18894;DHT22;9579;49.488;8.226;2024-01-15T03:41:16;1.10;99.90
18894;DHT22;9579;49.488;8.226;2024-01-15T03:44:03;1.30;99.90
18894;DHT22;9579;49.488;8.226;2024-01-15T03:46:52;1.40;99.90
18894;DHT22;9579;49.488;8.226;2024-01-15T03:49:39;1.40;99.90
18894;DHT22;9579;49.488;8.226;2024-01-15T03:52:26;1.60;99.90
18894;DHT22;9579;49.488;8.226;2024-01-15T03:55:13;1.50;99.90
18894;DHT22;9579;49.488;8.226;2024-01-15T03:58:00;1.60;99.90
18894;DHT22;9579;49.488;8.226;2024-01-15T04:00:47;1.50;99.90
18894;DHT22;9579;49.488;8.226;2024-01-15T04:03:36;1.60;99.90
18894;DHT22;9579;49.488;8.226;2024-01-15T04:06:23;1.60;99.90
18894;DHT22;9579;49.488;8.226;2024-01-15T04:09:11;1.60;99.90
18894;DHT22;9579;49.488;8.226;2024-01-15T04:11:58;1.50;99.90
18894;DHT22;9579;49.488;8.226;2024-01-15T04:14:45;1.50;99.90
18894;DHT22;9579;49.488;8.226;2024-01-15T04:17:32;1.40;99.90
18894;DHT22;9579;49.488;8.226;2024-01-15T04:20:21;1.40;99.90
18894;DHT22;9579;49.488;8.226;2024-01-15T04:23:08;1.30;99.90
18894;DHT22;9579;49.488;8.226;2024-01-15T04:25:55;1.20;99.90
18894;DHT22;9579;49.488;8.226;2024-01-15T04:28:42;1.20;99.90
18894;DHT22;9579;49.488;8.226;2024-01-15T04:31:29;1.20;99.90
18894;DHT22;9579;49.488;8.226;2024-01-15T04:34:16;1.20;99.90
18894;DHT22;9579;49.488;8.226;2024-01-15T04:37:04;1.20;99.90
18894;DHT22;9579;49.488;8.226;2024-01-15T04:39:52;1.20;99.90
18894;DHT22;9579;49.488;8.226;2024-01-15T04:42:40;1.20;99.90
18894;DHT22;9579;49.488;8.226;2024-01-15T04:45:27;1.10;99.90
18894;DHT22;9579;49.488;8.226;2024-01-15T04:48:15;1.10;99.90
18894;DHT22;9579;49.488;8.226;2024-01-15T04:51:04;1.10;99.90
18894;DHT22;9579;49.488;8.226;2024-01-15T04:53:52;1.20;99.90
18894;DHT22;9579;49.488;8.226;2024-01-15T04:56:39;1.20;99.90
18894;DHT22;9579;49.488;8.226;2024-01-15T04:59:26;1.20;99.90
18894;DHT22;9579;49.488;8.226;2024-01-15T05:02:13;1.20;99.90
18894;DHT22;9579;49.488;8.226;2024-01-15T05:05:00;1.20;99.90
18894;DHT22;9579;49.488;8.226;2024-01-15T05:07:47;1.20;99.90
18894;DHT22;9579;49.488;8.226;2024-01-15T05:10:36;1.30;99.90
18894;DHT22;9579;49.488;8.226;2024-01-15T05:13:23;1.40;99.90
18894;DHT22;9579;49.488;8.226;2024-01-15T05:16:10;1.40;99.90
18894;DHT22;9579;49.488;8.226;2024-01-15T05:18:57;1.30;99.90
18894;DHT22;9579;49.488;8.226;2024-01-15T05:21:44;1.20;99.90
18894;DHT22;9579;49.488;8.226;2024-01-15T05:24:31;1.20;99.90
18894;DHT22;9579;49.488;8.226;2024-01-15T05:27:20;1.20;99.90
18894;DHT22;9579;49.488;8.226;2024-01-15T05:30:07;1.30;99.90
18894;DHT22;9579;49.488;8.226;2024-01-15T05:32:54;1.30;99.90
18894;DHT22;9579;49.488;8.226;2024-01-15T05:35:41;1.40;99.90
18894;DHT22;9579;49.488;8.226;2024-01-15T05:38:28;1.40;99.90
18894;DHT22;9579;49.488;8.226;2024-01-15T05:41:15;1.50;99.90
18894;DHT22;9579;49.488;8.226;2024-01-15T05:44:04;1.60;99.90
18894;DHT22;9579;49.488;8.226;2024-01-15T05:46:51;1.60;99.90
18894;DHT22;9579;49.488;8.226;2024-01-15T05:49:38;1.60;99.90
18894;DHT22;9579;49.488;8.226;2024-01-15T05:52:25;1.40;99.90
18894;DHT22;9579;49.488;8.226;2024-01-15T05:55:12;1.50;99.90
18894;DHT22;9579;49.488;8.226;2024-01-15T05:57:59;1.50;99.90
18894;DHT22;9579;49.488;8.226;2024-01-15T06:00:47;1.50;99.90
18894;DHT22;9579;49.488;8.226;2024-01-15T06:03:35;1.60;99.90
18894;DHT22;9579;49.488;8.226;2024-01-15T06:06:22;1.50;99.90
18894;DHT22;9579;49.488;8.226;2024-01-15T06:09:09;1.40;99.90
18894;DHT22;9579;49.488;8.226;2024-01-15T06:11:56;1.30;99.90
18894;DHT22;9579;49.488;8.226;2024-01-15T06:14:43;1.20;99.90
18894;DHT22;9579;49.488;8.226;2024-01-15T06:17:32;1.20;99.90
18894;DHT22;9579;49.488;8.226;2024-01-15T06:20:19;1.10;99.90
18894;DHT22;9579;49.488;8.226;2024-01-15T06:23:06;1.10;99.90
18894;DHT22;9579;49.488;8.226;2024-01-15T06:25:53;1.10;99.90
18894;DHT22;9579;49.488;8.226;2024-01-15T06:28:40;1.10;99.90
18894;DHT22;9579;49.488;8.226;2024-01-15T06:31:27;1.20;99.90
18894;DHT22;9579;49.488;8.226;2024-01-15T06:34:15;1.20;99.90
18894;DHT22;9579;49.488;8.226;2024-01-15T06:37:02;1.20;99.90
18894;DHT22;9579;49.488;8.226;2024-01-15T06:39:50;1.30;99.90
18894;DHT22;9579;49.488;8.226;2024-01-15T06:42:37;1.30;99.90
18894;DHT22;9579;49.488;8.226;2024-01-15T06:45:24;1.30;99.90
18894;DHT22;9579;49.488;8.226;2024-01-15T06:48:11;1.40;99.90
18894;DHT22;9579;49.488;8.226;2024-01-15T06:51:01;1.50;99.90
18894;DHT22;9579;49.488;8.226;2024-01-15T06:53:48;1.70;99.90
18894;DHT22;9579;49.488;8.226;2024-01-15T06:56:35;1.70;99.90
18894;DHT22;9579;49.488;8.226;2024-01-15T06:59:22;1.80;99.90
18894;DHT22;9579;49.488;8.226;2024-01-15T07:02:09;1.90;99.90
18894;DHT22;9579;49.488;8.226;2024-01-15T07:04:56;2.00;99.90
18894;DHT22;9579;49.488;8.226;2024-01-15T07:07:44;2.20;99.90
18894;DHT22;9579;49.488;8.226;2024-01-15T07:10:31;2.20;99.90
18894;DHT22;9579;49.488;8.226;2024-01-15T07:13:18;2.30;99.90
18894;DHT22;9579;49.488;8.226;2024-01-15T07:16:05;2.30;99.90
18894;DHT22;9579;49.488;8.226;2024-01-15T07:18:53;2.40;99.90
18894;DHT22;9579;49.488;8.226;2024-01-15T07:21:40;2.40;99.90
18894;DHT22;9579;49.488;8.226;2024-01-15T07:24:30;2.40;99.90
18894;DHT22;9579;49.488;8.226;2024-01-15T07:27:17;2.40;99.90
18894;DHT22;9579;49.488;8.226;2024-01-15T07:30:05;2.30;99.90
18894;DHT22;9579;49.488;8.226;2024-01-15T07:32:52;2.10;99.90
18894;DHT22;9579;49.488;8.226;2024-01-15T07:35:39;2.10;99.90
18894;DHT22;9579;49.488;8.226;2024-01-15T07:38:27;2.10;99.90
18894;DHT22;9579;49.488;8.226;2024-01-15T07:41:15;1.90;99.90
18894;DHT22;9579;49.488;8.226;2024-01-15T07:44:03;1.80;99.90
18894;DHT22;9579;49.488;8.226;2024-01-15T07:46:50;1.70;99.90
18894;DHT22;9579;49.488;8.226;2024-01-15T07:49:37;1.60;99.90
18894;DHT22;9579;49.488;8.226;2024-01-15T07:52:24;1.50;99.90
18894;DHT22;9579;49.488;8.226;2024-01-15T07:55:11;1.50;99.90
18894;DHT22;9579;49.488;8.226;2024-01-15T07:58:00;1.50;99.90
18894;DHT22;9579;49.488;8.226;2024-01-15T08:00:47;1.50;99.90
18894;DHT22;9579;49.488;8.226;2024-01-15T08:03:34;1.50;99.90
18894;DHT22;9579;49.488;8.226;2024-01-15T08:06:21;1.60;99.90
18894;DHT22;9579;49.488;8.226;2024-01-15T08:09:08;1.50;99.90
18894;DHT22;9579;49.488;8.226;2024-01-15T08:11:55;1.50;99.90
18894;DHT22;9579;49.488;8.226;2024-01-15T08:14:44;1.50;99.90
18894;DHT22;9579;49.488;8.226;2024-01-15T08:17:31;1.50;99.90
18894;DHT22;9579;49.488;8.226;2024-01-15T08:20:18;1.50;99.90
18894;DHT22;9579;49.488;8.226;2024-01-15T08:23:05;1.60;99.90
18894;DHT22;9579;49.488;8.226;2024-01-15T08:25:52;1.60;99.90
18894;DHT22;9579;49.488;8.226;2024-01-15T08:28:39;1.60;99.90
18894;DHT22;9579;49.488;8.226;2024-01-15T08:31:27;1.60;99.90
18894;DHT22;9579;49.488;8.226;2024-01-15T08:34:14;1.60;99.90
18894;DHT22;9579;49.488;8.226;2024-01-15T08:37:01;1.60;99.90
18894;DHT22;9579;49.488;8.226;2024-01-15T08:39:48;1.70;99.90
18894;DHT22;9579;49.488;8.226;2024-01-15T08:42:35;1.70;99.90
18894;DHT22;9579;49.488;8.226;2024-01-15T08:45:22;1.70;99.90
18894;DHT22;9579;49.488;8.226;2024-01-15T08:48:11;1.70;99.90
18894;DHT22;9579;49.488;8.226;2024-01-15T08:50:58;1.60;99.90
18894;DHT22;9579;49.488;8.226;2024-01-15T08:53:45;1.60;99.90
18894;DHT22;9579;49.488;8.226;2024-01-15T08:56:32;1.60;99.90
18894;DHT22;9579;49.488;8.226;2024-01-15T08:59:19;1.60;99.90
18894;DHT22;9579;49.488;8.226;2024-01-15T09:02:10;1.60;99.90
18894;DHT22;9579;49.488;8.226;2024-01-15T09:04:58;1.60;99.90
18894;DHT22;9579;49.488;8.226;2024-01-15T09:07:45;1.60;99.90
18894;DHT22;9579;49.488;8.226;2024-01-15T09:10:33;1.60;99.90
18894;DHT22;9579;49.488;8.226;2024-01-15T09:13:20;1.50;99.90
18894;DHT22;9579;49.488;8.226;2024-01-15T09:16:07;1.60;99.90
18894;DHT22;9579;49.488;8.226;2024-01-15T09:18:54;1.70;99.90
18894;DHT22;9579;49.488;8.226;2024-01-15T09:21:44;1.70;99.90
18894;DHT22;9579;49.488;8.226;2024-01-15T09:24:31;1.70;99.90
18894;DHT22;9579;49.488;8.226;2024-01-15T09:27:18;1.60;99.90
18894;DHT22;9579;49.488;8.226;2024-01-15T09:30:06;1.60;99.90
18894;DHT22;9579;49.488;8.226;2024-01-15T09:32:54;1.60;99.90
18894;DHT22;9579;49.488;8.226;2024-01-15T09:35:41;1.60;99.90
18894;DHT22;9579;49.488;8.226;2024-01-15T09:38:29;1.60;99.90
18894;DHT22;9579;49.488;8.226;2024-01-15T09:41:17;1.60;99.90
18894;DHT22;9579;49.488;8.226;2024-01-15T09:44:05;1.70;99.90
18894;DHT22;9579;49.488;8.226;2024-01-15T09:46:53;1.70;99.90
18894;DHT22;9579;49.488;8.226;2024-01-15T09:49:41;1.70;99.90
18894;DHT22;9579;49.488;8.226;2024-01-15T09:52:29;1.70;99.90
18894;DHT22;9579;49.488;8.226;2024-01-15T09:55:19;1.80;99.90
18894;DHT22;9579;49.488;8.226;2024-01-15T09:58:06;1.90;99.90
18894;DHT22;9579;49.488;8.226;2024-01-15T10:00:53;2.00;99.90
18894;DHT22;9579;49.488;8.226;2024-01-15T10:03:41;1.90;99.90
18894;DHT22;9579;49.488;8.226;2024-01-15T10:06:28;1.90;99.90
18894;DHT22;9579;49.488;8.226;2024-01-15T10:09:15;1.90;99.90
18894;DHT22;9579;49.488;8.226;2024-01-15T10:12:04;1.90;99.90
18894;DHT22;9579;49.488;8.226;2024-01-15T10:14:51;1.90;99.90
18894;DHT22;9579;49.488;8.226;2024-01-15T10:17:39;2.00;99.90
18894;DHT22;9579;49.488;8.226;2024-01-15T10:20:26;1.90;99.90
18894;DHT22;9579;49.488;8.226;2024-01-15T10:23:14;2.00;99.90
18894;DHT22;9579;49.488;8.226;2024-01-15T10:26:01;2.10;99.90
18894;DHT22;9579;49.488;8.226;2024-01-15T10:28:51;2.20;99.90
18894;DHT22;9579;49.488;8.226;2024-01-15T10:31:38;2.30;99.90
18894;DHT22;9579;49.488;8.226;2024-01-15T10:34:26;2.40;99.90
18894;DHT22;9579;49.488;8.226;2024-01-15T10:37:14;2.40;99.90
18894;DHT22;9579;49.488;8.226;2024-01-15T10:40:02;2.30;99.90
18894;DHT22;9579;49.488;8.226;2024-01-15T10:42:51;2.30;99.90
18894;DHT22;9579;49.488;8.226;2024-01-15T10:45:39;2.40;99.90
18894;DHT22;9579;49.488;8.226;2024-01-15T10:48:27;2.50;99.90
18894;DHT22;9579;49.488;8.226;2024-01-15T10:51:16;2.50;99.90
18894;DHT22;9579;49.488;8.226;2024-01-15T10:54:04;2.50;99.90
18894;DHT22;9579;49.488;8.226;2024-01-15T10:56:52;2.30;99.90
18894;DHT22;9579;49.488;8.226;2024-01-15T10:59:39;2.20;99.90
18894;DHT22;9579;49.488;8.226;2024-01-15T11:02:28;2.10;99.90
18894;DHT22;9579;49.488;8.226;2024-01-15T11:05:15;2.10;99.90
18894;DHT22;9579;49.488;8.226;2024-01-15T11:08:05;2.10;99.90
18894;DHT22;9579;49.488;8.226;2024-01-15T11:10:53;2.10;99.90
18894;DHT22;9579;49.488;8.226;2024-01-15T11:13:41;2.20;99.90
18894;DHT22;9579;49.488;8.226;2024-01-15T11:16:54;2.20;99.90
18894;DHT22;9579;49.488;8.226;2024-01-15T11:19:48;2.30;99.90
18894;DHT22;9579;49.488;8.226;2024-01-15T11:22:49;2.30;99.90
18894;DHT22;9579;49.488;8.226;2024-01-15T11:25:37;2.30;99.90
18894;DHT22;9579;49.488;8.226;2024-01-15T11:28:49;2.30;99.90
18894;DHT22;9579;49.488;8.226;2024-01-15T11:31:58;2.40;99.90
18894;DHT22;9579;49.488;8.226;2024-01-15T11:34:58;2.50;99.90
18894;DHT22;9579;49.488;8.226;2024-01-15T11:37:57;2.50;99.90
18894;DHT22;9579;49.488;8.226;2024-01-15T11:40:44;2.50;99.90
18894;DHT22;9579;49.488;8.226;2024-01-15T11:43:33;2.60;99.90
18894;DHT22;9579;49.488;8.226;2024-01-15T11:46:21;2.60;99.90
18894;DHT22;9579;49.488;8.226;2024-01-15T11:49:12;2.60;99.90
18894;DHT22;9579;49.488;8.226;2024-01-15T11:52:11;2.70;99.90
18894;DHT22;9579;49.488;8.226;2024-01-15T11:55:05;2.60;99.90
18894;DHT22;9579;49.488;8.226;2024-01-15T11:57:54;2.60;99.90
18894;DHT22;9579;49.488;8.226;2024-01-15T12:00:43;2.70;99.90
18894;DHT22;9579;49.488;8.226;2024-01-15T12:03:32;2.70;99.90
18894;DHT22;9579;49.488;8.226;2024-01-15T12:06:20;2.80;99.90
18894;DHT22;9579;49.488;8.226;2024-01-15T12:09:10;2.70;99.90
18894;DHT22;9579;49.488;8.226;2024-01-15T12:12:03;2.80;99.90
18894;DHT22;9579;49.488;8.226;2024-01-15T12:14:54;2.90;99.90
18894;DHT22;9579;49.488;8.226;2024-01-15T12:17:41;3.10;99.90
18894;DHT22;9579;49.488;8.226;2024-01-15T12:20:28;3.20;99.90
18894;DHT22;9579;49.488;8.226;2024-01-15T12:23:16;3.30;99.90
18894;DHT22;9579;49.488;8.226;2024-01-15T12:26:04;3.40;99.90
18894;DHT22;9579;49.488;8.226;2024-01-15T12:28:51;3.50;99.90
18894;DHT22;9579;49.488;8.226;2024-01-15T12:31:38;3.60;99.90
18894;DHT22;9579;49.488;8.226;2024-01-15T12:34:28;3.60;99.90
18894;DHT22;9579;49.488;8.226;2024-01-15T12:37:18;3.80;99.90
18894;DHT22;9579;49.488;8.226;2024-01-15T12:40:06;4.20;99.90
18894;DHT22;9579;49.488;8.226;2024-01-15T12:42:55;4.40;99.90
18894;DHT22;9579;49.488;8.226;2024-01-15T12:45:42;4.60;99.90
18894;DHT22;9579;49.488;8.226;2024-01-15T12:48:29;4.80;99.90
18894;DHT22;9579;49.488;8.226;2024-01-15T12:51:16;4.80;99.90
18894;DHT22;9579;49.488;8.226;2024-01-15T12:54:03;5.10;99.90
18894;DHT22;9579;49.488;8.226;2024-01-15T12:56:50;5.80;99.90
18894;DHT22;9579;49.488;8.226;2024-01-15T12:59:39;6.40;99.90
18894;DHT22;9579;49.488;8.226;2024-01-15T13:02:26;6.60;99.90
18894;DHT22;9579;49.488;8.226;2024-01-15T13:05:13;6.60;99.90
18894;DHT22;9579;49.488;8.226;2024-01-15T13:08:01;6.30;99.90
18894;DHT22;9579;49.488;8.226;2024-01-15T13:10:49;6.60;99.90
18894;DHT22;9579;49.488;8.226;2024-01-15T13:13:37;7.20;99.90
18894;DHT22;9579;49.488;8.226;2024-01-15T13:16:26;7.50;99.30
18894;DHT22;9579;49.488;8.226;2024-01-15T13:19:15;7.60;98.60
18894;DHT22;9579;49.488;8.226;2024-01-15T13:22:02;7.40;99.50
18894;DHT22;9579;49.488;8.226;2024-01-15T13:24:52;7.40;99.00
18894;DHT22;9579;49.488;8.226;2024-01-15T13:27:39;7.70;99.30
18894;DHT22;9579;49.488;8.226;2024-01-15T13:30:26;8.00;98.40
18894;DHT22;9579;49.488;8.226;2024-01-15T13:33:15;8.10;98.40
18894;DHT22;9579;49.488;8.226;2024-01-15T13:36:02;8.30;97.60
18894;DHT22;9579;49.488;8.226;2024-01-15T13:38:49;8.40;97.70
18894;DHT22;9579;49.488;8.226;2024-01-15T13:41:36;8.70;97.20
18894;DHT22;9579;49.488;8.226;2024-01-15T13:44:23;8.90;96.90
18894;DHT22;9579;49.488;8.226;2024-01-15T13:47:11;9.10;96.20
18894;DHT22;9579;49.488;8.226;2024-01-15T13:50:00;9.50;96.20
18894;DHT22;9579;49.488;8.226;2024-01-15T13:52:47;9.10;95.20
18894;DHT22;9579;49.488;8.226;2024-01-15T13:55:34;8.80;95.80
18894;DHT22;9579;49.488;8.226;2024-01-15T13:58:21;8.80;95.80
18894;DHT22;9579;49.488;8.226;2024-01-15T14:01:08;8.30;96.40
18894;DHT22;9579;49.488;8.226;2024-01-15T14:03:55;8.20;96.50
18894;DHT22;9579;49.488;8.226;2024-01-15T14:06:43;8.60;96.90
18894;DHT22;9579;49.488;8.226;2024-01-15T14:09:30;8.90;95.90
18894;DHT22;9579;49.488;8.226;2024-01-15T14:12:18;8.70;95.80
18894;DHT22;9579;49.488;8.226;2024-01-15T14:15:06;8.40;95.70
18894;DHT22;9579;49.488;8.226;2024-01-15T14:17:53;8.20;95.80
18894;DHT22;9579;49.488;8.226;2024-01-15T14:20:40;8.30;96.30
18894;DHT22;9579;49.488;8.226;2024-01-15T14:23:28;8.50;95.70
18894;DHT22;9579;49.488;8.226;2024-01-15T14:26:15;8.90;95.10
18894;DHT22;9579;49.488;8.226;2024-01-15T14:29:02;9.30;95.30
18894;DHT22;9579;49.488;8.226;2024-01-15T14:31:49;9.60;94.50
18894;DHT22;9579;49.488;8.226;2024-01-15T14:34:37;10.80;93.40
18894;DHT22;9579;49.488;8.226;2024-01-15T14:37:24;11.80;91.00
18894;DHT22;9579;49.488;8.226;2024-01-15T14:40:13;12.50;89.10
18894;DHT22;9579;49.488;8.226;2024-01-15T14:43:01;13.40;85.80
18894;DHT22;9579;49.488;8.226;2024-01-15T14:45:49;14.20;83.50
18894;DHT22;9579;49.488;8.226;2024-01-15T14:48:36;15.20;77.90
18894;DHT22;9579;49.488;8.226;2024-01-15T14:51:23;15.40;74.50
18894;DHT22;9579;49.488;8.226;2024-01-15T14:54:10;15.30;72.50
18894;DHT22;9579;49.488;8.226;2024-01-15T14:56:58;14.70;71.80
18894;DHT22;9579;49.488;8.226;2024-01-15T14:59:45;14.10;73.80
18894;DHT22;9579;49.488;8.226;2024-01-15T15:02:33;12.80;74.20
18894;DHT22;9579;49.488;8.226;2024-01-15T15:05:20;11.00;78.10
18894;DHT22;9579;49.488;8.226;2024-01-15T15:08:07;9.80;83.80
18894;DHT22;9579;49.488;8.226;2024-01-15T15:10:55;8.70;87.40
18894;DHT22;9579;49.488;8.226;2024-01-15T15:13:43;7.90;90.10
18894;DHT22;9579;49.488;8.226;2024-01-15T15:16:31;7.10;91.40
18894;DHT22;9579;49.488;8.226;2024-01-15T15:19:18;6.60;93.20
18894;DHT22;9579;49.488;8.226;2024-01-15T15:22:06;6.20;94.10
18894;DHT22;9579;49.488;8.226;2024-01-15T15:24:53;6.10;94.70
18894;DHT22;9579;49.488;8.226;2024-01-15T15:27:40;5.90;94.80
18894;DHT22;9579;49.488;8.226;2024-01-15T15:30:29;5.60;95.80
18894;DHT22;9579;49.488;8.226;2024-01-15T15:33:16;5.40;96.40
18894;DHT22;9579;49.488;8.226;2024-01-15T15:36:04;5.30;97.10
18894;DHT22;9579;49.488;8.226;2024-01-15T15:38:52;5.30;97.00
18894;DHT22;9579;49.488;8.226;2024-01-15T15:41:41;5.20;97.00
18894;DHT22;9579;49.488;8.226;2024-01-15T15:44:28;5.10;97.30
18894;DHT22;9579;49.488;8.226;2024-01-15T15:47:17;5.00;97.30
18894;DHT22;9579;49.488;8.226;2024-01-15T15:50:05;4.90;97.30
18894;DHT22;9579;49.488;8.226;2024-01-15T15:52:52;4.80;97.40
18894;DHT22;9579;49.488;8.226;2024-01-15T15:55:39;4.70;97.70
18894;DHT22;9579;49.488;8.226;2024-01-15T15:58:26;4.80;97.40
18894;DHT22;9579;49.488;8.226;2024-01-15T16:01:13;4.60;97.60
18894;DHT22;9579;49.488;8.226;2024-01-15T16:04:02;4.70;97.90
18894;DHT22;9579;49.488;8.226;2024-01-15T16:06:49;4.60;98.00
18894;DHT22;9579;49.488;8.226;2024-01-15T16:09:36;4.50;98.30
18894;DHT22;9579;49.488;8.226;2024-01-15T16:12:23;4.50;98.30
18894;DHT22;9579;49.488;8.226;2024-01-15T16:15:18;4.50;98.30
18894;DHT22;9579;49.488;8.226;2024-01-15T16:18:06;4.40;98.50
18894;DHT22;9579;49.488;8.226;2024-01-15T16:20:54;4.30;98.60
18894;DHT22;9579;49.488;8.226;2024-01-15T16:23:42;4.20;99.00
18894;DHT22;9579;49.488;8.226;2024-01-15T16:26:29;4.30;99.20
18894;DHT22;9579;49.488;8.226;2024-01-15T16:29:16;4.10;99.20
18894;DHT22;9579;49.488;8.226;2024-01-15T16:32:04;4.00;99.50
18894;DHT22;9579;49.488;8.226;2024-01-15T16:34:51;4.10;99.70
18894;DHT22;9579;49.488;8.226;2024-01-15T16:37:39;4.10;98.90
18894;DHT22;9579;49.488;8.226;2024-01-15T16:40:26;4.00;98.60
18894;DHT22;9579;49.488;8.226;2024-01-15T16:43:13;4.00;98.50
18894;DHT22;9579;49.488;8.226;2024-01-15T16:46:00;4.00;98.40
18894;DHT22;9579;49.488;8.226;2024-01-15T16:48:47;4.10;98.10
18894;DHT22;9579;49.488;8.226;2024-01-15T16:51:34;4.00;98.20
18894;DHT22;9579;49.488;8.226;2024-01-15T16:54:23;4.00;97.80
18894;DHT22;9579;49.488;8.226;2024-01-15T16:57:10;3.90;98.40
18894;DHT22;9579;49.488;8.226;2024-01-15T16:59:57;3.90;97.90
18894;DHT22;9579;49.488;8.226;2024-01-15T17:02:44;3.90;98.20
18894;DHT22;9579;49.488;8.226;2024-01-15T17:05:31;3.90;98.70
18894;DHT22;9579;49.488;8.226;2024-01-15T17:08:18;3.90;98.70
18894;DHT22;9579;49.488;8.226;2024-01-15T17:11:06;3.90;98.70
18894;DHT22;9579;49.488;8.226;2024-01-15T17:13:53;3.90;98.70
18894;DHT22;9579;49.488;8.226;2024-01-15T17:16:40;3.90;98.90
18894;DHT22;9579;49.488;8.226;2024-01-15T17:19:27;3.80;98.80
18894;DHT22;9579;49.488;8.226;2024-01-15T17:22:14;3.80;99.00
18894;DHT22;9579;49.488;8.226;2024-01-15T17:25:01;3.60;99.20
18894;DHT22;9579;49.488;8.226;2024-01-15T17:27:50;3.40;99.50
18894;DHT22;9579;49.488;8.226;2024-01-15T17:30:37;3.40;99.70
18894;DHT22;9579;49.488;8.226;2024-01-15T17:33:24;3.40;99.80
18894;DHT22;9579;49.488;8.226;2024-01-15T17:36:12;3.30;99.90
18894;DHT22;9579;49.488;8.226;2024-01-15T17:38:59;3.20;99.90
18894;DHT22;9579;49.488;8.226;2024-01-15T17:41:46;3.10;99.90
18894;DHT22;9579;49.488;8.226;2024-01-15T17:44:35;3.20;99.90
18894;DHT22;9579;49.488;8.226;2024-01-15T17:47:22;3.10;99.90
18894;DHT22;9579;49.488;8.226;2024-01-15T17:50:09;3.00;99.90
18894;DHT22;9579;49.488;8.226;2024-01-15T17:52:56;3.00;99.90
18894;DHT22;9579;49.488;8.226;2024-01-15T17:55:44;2.90;99.90
18894;DHT22;9579;49.488;8.226;2024-01-15T17:58:31;2.90;99.90
18894;DHT22;9579;49.488;8.226;2024-01-15T18:01:19;2.90;99.90
18894;DHT22;9579;49.488;8.226;2024-01-15T18:04:06;2.90;99.90
18894;DHT22;9579;49.488;8.226;2024-01-15T18:06:54;2.80;99.90
18894;DHT22;9579;49.488;8.226;2024-01-15T18:09:41;2.80;99.90
18894;DHT22;9579;49.488;8.226;2024-01-15T18:12:29;2.80;99.90